Weather reports worldwide

Advertisment
Carlsfeld, Germany (10574): temperature & dewpoint: 19.08.2019 08:00:00 - 25.08.2019 08:00:00 (CEST)Carlsfeld, Germany (10574): temperature 5cm & temperature -5cm: 19.08.2019 08:00:00 - 25.08.2019 08:00:00 (CEST)Carlsfeld, Germany (10574): temperature -20cm & temperature -100cm: 19.08.2019 08:00:00 - 25.08.2019 08:00:00 (CEST)Carlsfeld, Germany (10574): wind speed & gusts: 19.08.2019 08:00:00 - 25.08.2019 08:00:00 (CEST)Carlsfeld, Germany (10574): wind direction: 19.08.2019 08:00:00 - 25.08.2019 08:00:00 (CEST)Carlsfeld, Germany (10574): visibility: 19.08.2019 08:00:00 - 25.08.2019 08:00:00 (CEST)Carlsfeld, Germany (10574): sunshine duration: 19.08.2019 08:00:00 - 25.08.2019 08:00:00 (CEST)Carlsfeld, Germany (10574): precipitation: 19.08.2019 08:00:00 - 25.08.2019 08:00:00 (CEST)
Date & Time tt [°C] td [°C] tt 5cm [°C] tt -5cm [°C] tt -20cm [°C] tt -100cm [°C] ff [km/h] ff [kn] fx [km/h] fx [kn] dd vv [km] sd [min] rr [mm]
25.08.2019 08:00:00 - - - - - - - - - - - - - -
25.08.2019 07:00:00 16,5 14,2 15,1 14,4 16,4 14,6 9 5 16 9 SSE 10 2 0,0
25.08.2019 06:00:00 16,6 14,3 14,7 14,6 16,5 14,6 8 5 18 10 S 10 0 0,0
25.08.2019 05:00:00 16,9 14,5 14,5 14,9 16,7 14,6 8 5 21 11 SSE 10 0 0,0
25.08.2019 04:00:00 17,1 14,9 15,6 15,0 16,9 14,6 10 6 17 9 S 11 0 0,0
25.08.2019 03:00:00 17,0 15,0 15,2 15,3 17,1 14,6 7 4 13 7 S 10 0 0,0
25.08.2019 02:00:00 17,1 15,0 15,0 15,6 17,3 14,6 8 4 14 8 S 10 0 0,0
25.08.2019 01:00:00 17,1 14,9 15,4 15,8 17,6 14,6 8 4 16 8 SSE 12 0 0,0
25.08.2019 00:00:00 16,6 14,2 13,6 16,2 17,8 14,6 5 3 9 5 SSE 11 0 0,0
24.08.2019 23:00:00 17,0 14,2 14,1 16,9 18,1 14,6 5 3 13 7 SSE 13 0 0,0
24.08.2019 22:00:00 17,5 14,1 14,9 17,6 18,3 14,6 5 3 11 6 S 13 0 0,0
24.08.2019 21:00:00 17,6 13,7 14,9 18,6 18,5 14,6 6 3 10 6 SE 13 0 0,0
24.08.2019 20:00:00 19,1 13,8 16,2 19,9 18,5 14,6 5 3 19 11 SE 16 25 0,0
24.08.2019 19:00:00 20,6 13,8 20,0 21,5 18,3 14,6 13 7 20 11 ESE 19 29 0,0
24.08.2019 18:00:00 21,4 14,1 22,7 22,5 18,1 14,6 9 5 20 11 E 19 27 0,0
24.08.2019 17:00:00 21,8 14,0 23,1 22,8 17,7 14,6 11 6 22 12 E 20 33 0,0
24.08.2019 16:00:00 21,7 14,0 24,3 23,4 17,2 14,6 9 5 22 12 ESE 22 13 0,0
24.08.2019 15:00:00 21,8 13,8 24,7 24,0 16,6 14,6 10 5 23 12 ESE 23 43 0,0
24.08.2019 14:00:00 21,3 13,7 25,1 21,6 16,1 14,6 13 7 23 12 SE 22 34 0,0
24.08.2019 13:00:00 20,3 13,7 22,0 20,8 15,6 14,6 13 7 28 15 E 21 24 0,0
24.08.2019 12:00:00 19,8 13,8 22,0 19,3 15,2 14,6 13 7 28 15 ESE 20 22 0,0
24.08.2019 11:00:00 19,1 13,7 21,1 18,0 14,8 14,6 16 9 27 15 ESE 18 49 0,0
24.08.2019 10:00:00 18,1 13,6 19,0 15,9 14,7 14,6 18 10 26 14 SE 12 55 0,0
24.08.2019 09:00:00 17,1 14,3 18,0 13,5 14,7 14,6 8 4 17 9 ESE 9 33 0,0
24.08.2019 08:00:00 15,1 12,9 13,7 12,0 14,9 14,6 11 6 19 10 SE 10 30 0,0
24.08.2019 07:00:00 13,1 11,3 10,4 11,2 15,2 14,6 3 2 8 5 SSE 17 3 0,0
24.08.2019 06:00:00 12,5 10,8 10,1 11,1 15,5 14,6 5 3 8 5 SSE 14 0 0,0
24.08.2019 05:00:00 12,0 10,7 8,4 11,3 15,9 14,6 5 3 8 5 SSE 14 0 0,0
24.08.2019 04:00:00 12,0 9,8 7,1 11,7 16,3 14,6 3 1 9 5 S 16 0 0,0
24.08.2019 03:00:00 11,7 9,2 7,2 12,0 16,7 14,6 6 3 10 5 SSE 24 0 0,0
24.08.2019 02:00:00 10,7 8,4 6,1 12,7 17,1 14,6 3 1 7 4 SSE 19 0 0,0
24.08.2019 01:00:00 10,8 8,3 7,0 13,6 17,6 14,6 0 0 4 2 N 20 0 0,0
24.08.2019 00:00:00 13,4 8,7 8,0 14,7 18,0 14,6 4 2 8 5 SSE 29 0 0,0
23.08.2019 23:00:00 14,3 9,2 10,1 15,8 18,4 14,6 4 2 11 6 SSE 28 0 0,0
23.08.2019 22:00:00 14,3 9,5 10,7 16,9 18,8 14,6 6 4 11 6 SSE 23 0 0,0
23.08.2019 21:00:00 16,1 9,6 11,4 18,5 19,0 14,6 4 2 9 5 S 30 0 0,0
23.08.2019 20:00:00 18,3 9,2 14,9 20,5 19,1 14,6 5 3 12 7 S 36 40 0,0
23.08.2019 19:00:00 20,3 8,8 20,4 22,4 19,0 14,6 7 4 18 10 SE 42 60 0,0
23.08.2019 18:00:00 21,7 8,3 23,7 24,0 18,7 14,6 10 5 21 11 E 36 59 0,0
23.08.2019 17:00:00 22,0 9,0 25,0 25,3 18,2 14,6 12 6 21 12 ESE 43 60 0,0
23.08.2019 16:00:00 21,9 8,6 26,0 26,1 17,5 14,6 8 5 24 13 NE 30 60 0,0
23.08.2019 15:00:00 21,8 8,4 27,1 26,0 16,7 14,6 8 4 19 11 NE 29 60 0,0
23.08.2019 14:00:00 21,1 9,8 25,8 25,2 15,9 14,6 8 4 16 8 SSE 34 60 0,0
23.08.2019 13:00:00 19,9 9,7 24,5 23,4 15,1 14,6 7 4 19 10 ESE 29 60 0,0
23.08.2019 12:00:00 19,4 9,0 24,7 21,1 14,5 14,6 7 4 16 9 E 30 60 0,0
23.08.2019 11:00:00 18,0 7,9 22,1 18,3 14,0 14,6 9 5 21 11 E 33 60 0,0
23.08.2019 10:00:00 17,3 7,8 20,2 15,4 13,8 14,6 9 5 19 10 E 24 60 0,0
23.08.2019 09:00:00 16,3 7,8 18,2 12,8 13,8 14,6 9 5 14 8 ESE 25 60 0,0
23.08.2019 08:00:00 12,7 10,4 13,2 10,3 14,0 14,6 5 3 6 4 SSE 22 60 0,0
23.08.2019 07:00:00 8,7 7,5 6,5 9,2 14,4 14,6 0 0 6 3 N 12 24 0,0
23.08.2019 06:00:00 8,1 6,9 4,2 9,6 14,8 14,6 2 1 8 4 SW 13 0 0,0
23.08.2019 05:00:00 9,5 7,0 5,2 10,0 15,2 14,6 7 4 10 5 SW 23 0 0,0
23.08.2019 04:00:00 8,8 7,2 5,2 10,6 15,6 14,6 6 4 9 5 SW 19 0 0,0
23.08.2019 03:00:00 9,2 7,1 5,2 11,4 16,0 14,6 5 3 10 5 SW 17 0 0,0
23.08.2019 02:00:00 11,2 7,9 6,3 12,2 16,4 14,6 6 3 15 8 SSW 28 0 0,0
23.08.2019 01:00:00 12,7 7,6 9,0 12,8 16,8 14,6 8 4 13 7 S 32 0 0,0
23.08.2019 00:00:00 12,4 7,3 7,7 13,6 17,2 14,6 7 4 14 7 SSW 33 0 0,0
22.08.2019 23:00:00 13,0 7,0 9,3 14,6 17,6 14,6 6 4 11 6 S 46 0 0,0
22.08.2019 22:00:00 13,3 7,1 9,9 15,8 18,0 14,6 5 3 12 6 S 42 0 0,0
22.08.2019 21:00:00 14,3 7,1 11,3 17,4 18,2 14,6 5 3 11 6 S 38 0 0,0
22.08.2019 20:00:00 16,1 7,3 11,8 19,2 18,3 14,6 4 2 17 9 S 55 40 0,0
22.08.2019 19:00:00 17,9 7,2 18,4 21,2 18,1 14,6 9 5 16 9 SSE 53 60 0,0
22.08.2019 18:00:00 18,8 6,7 21,0 22,6 17,8 14,6 9 5 21 11 E 46 60 0,0
22.08.2019 17:00:00 19,3 6,3 22,4 23,8 17,3 14,6 11 6 18 10 ESE 27 60 0,0
22.08.2019 16:00:00 19,2 5,1 22,8 24,1 16,7 14,6 7 4 18 10 S 31 60 0,0
22.08.2019 15:00:00 18,7 4,4 22,6 24,0 16,1 14,6 11 6 22 12 ESE 26 60 0,0
22.08.2019 14:00:00 18,0 4,9 22,8 23,0 15,4 14,6 8 5 29 16 E 24 60 0,0
22.08.2019 13:00:00 17,4 4,7 21,3 21,4 14,7 14,6 13 7 29 16 ESE 19 59 0,0
22.08.2019 12:00:00 16,8 6,2 21,5 19,8 14,1 14,6 13 7 26 14 E 38 59 0,0
22.08.2019 11:00:00 16,2 7,2 19,6 17,3 13,7 14,6 10 5 26 14 ESE 31 60 0,0
22.08.2019 10:00:00 15,7 7,7 18,6 14,4 13,5 14,6 11 6 24 13 SE 32 58 0,0
22.08.2019 09:00:00 14,4 8,1 16,2 12,0 13,6 14,6 10 5 23 12 ESE 21 60 0,0
22.08.2019 08:00:00 12,8 7,9 13,0 10,0 13,9 14,6 12 7 23 12 ESE 26 60 0,0
22.08.2019 07:00:00 8,5 6,2 6,2 9,1 14,2 14,6 8 5 16 8 ESE 19 4 0,0
22.08.2019 06:00:00 7,2 5,6 4,0 9,6 14,5 14,6 5 3 9 5 SSE 16 0 0,0
22.08.2019 05:00:00 7,9 6,1 4,1 10,4 14,9 14,6 3 2 9 5 S 17 0 0,0
22.08.2019 04:00:00 10,2 6,1 6,1 11,1 15,2 14,6 5 3 14 7 SSE 30 0 0,0
22.08.2019 03:00:00 10,2 6,0 7,7 11,4 15,5 14,6 6 4 13 7 SSE 32 0 0,0
22.08.2019 02:00:00 10,2 6,1 8,0 11,7 15,9 14,6 8 4 11 6 SSE 29 0 0,0
22.08.2019 01:00:00 10,0 6,3 7,1 12,1 16,3 14,6 5 3 11 6 SSE 24 0 0,0
22.08.2019 00:00:00 9,3 6,4 6,7 12,6 16,8 14,6 7 4 11 6 SSE 28 0 0,0
21.08.2019 23:00:00 8,9 6,2 5,8 13,5 17,2 14,6 6 3 9 5 SE 26 0 0,0
21.08.2019 22:00:00 8,8 6,4 5,3 14,7 17,6 14,6 2 1 6 3 SE 27 0 0,0
21.08.2019 21:00:00 10,4 7,2 6,4 16,5 17,9 14,6 2 1 6 4 ENE 32 0 0,0
21.08.2019 20:00:00 13,8 7,8 10,4 18,5 17,9 14,6 4 2 9 5 E 41 14 0,0
21.08.2019 19:00:00 15,5 6,3 16,6 20,1 17,8 14,6 5 3 14 8 NE 40 58 0,0
21.08.2019 18:00:00 16,2 6,2 18,8 21,2 17,6 14,6 9 5 18 10 E 35 48 0,0
21.08.2019 17:00:00 15,3 6,7 16,4 22,1 17,2 14,6 4 2 17 9 ENE 50 25 0,0
21.08.2019 16:00:00 16,7 6,0 21,2 23,2 16,7 14,6 4 2 18 10 ENE 25 56 0,0
21.08.2019 15:00:00 16,3 6,0 22,0 21,7 16,3 14,6 6 3 17 9 N 28 37 0,0
21.08.2019 14:00:00 15,5 7,1 20,8 21,1 15,7 14,6 8 4 18 10 ENE 36 32 0,0
21.08.2019 13:00:00 14,9 8,2 21,0 20,4 15,2 14,6 4 2 14 8 N 31 35 0,0
21.08.2019 12:00:00 13,9 7,5 17,6 19,1 14,7 14,6 6 3 16 9 N 29 35 0,0
21.08.2019 11:00:00 13,0 10,1 14,0 18,5 14,3 14,6 5 3 16 9 N 17 50 0,0
21.08.2019 10:00:00 13,7 10,4 17,1 15,6 14,1 14,6 5 3 13 7 ENE 18 58 0,0
21.08.2019 09:00:00 11,9 9,5 13,3 13,1 14,2 14,6 4 2 11 6 NNW 25 60 0,0
21.08.2019 08:00:00 9,3 8,6 10,5 11,2 14,4 14,6 4 2 11 6 NW 10 49 0,0
21.08.2019 07:00:00 8,1 7,5 6,7 11,0 14,7 14,6 5 3 13 7 WNW 6 0 0,0
21.08.2019 06:00:00 8,4 7,8 6,9 11,7 14,9 14,6 7 4 14 7 NW 5 0 0,0
21.08.2019 05:00:00 9,2 8,4 8,2 12,4 15,1 14,6 5 3 17 9 WNW 7 0 0,0
21.08.2019 04:00:00 10,0 9,0 9,7 12,9 15,3 14,6 5 3 12 7 WNW 20 0 0,0
21.08.2019 03:00:00 10,2 9,5 10,2 13,1 15,4 14,6 3 1 9 5 WNW 14 0 0,2
21.08.2019 02:00:00 10,4 9,7 10,4 13,3 15,7 14,6 4 2 15 8 NW 6 0 0,3
21.08.2019 01:00:00 10,6 10,0 10,6 13,4 15,9 14,6 5 3 19 10 N 8 0 0,8
21.08.2019 00:00:00 10,7 10,0 10,6 13,7 16,2 14,6 8 4 15 8 N 5 0 1,8
20.08.2019 23:00:00 10,8 10,2 10,9 14,1 16,5 14,6 5 3 21 11 NNW 3,1 0 1,6
20.08.2019 22:00:00 10,7 9,9 10,7 14,6 16,7 14,6 5 3 17 9 NNW 4,8 0 1,8
20.08.2019 21:00:00 11,0 10,1 10,9 15,3 17,0 14,6 4 2 16 9 NNW 4,8 0 1,1
20.08.2019 20:00:00 11,7 10,6 11,5 16,2 17,1 14,6 5 3 17 9 NW 5 0 1,2
20.08.2019 19:00:00 13,0 10,9 12,1 17,4 17,2 14,6 4 2 17 9 NW 9 0 0,4
20.08.2019 18:00:00 15,4 10,7 14,2 18,7 17,1 14,6 4 2 18 10 NNW 18 0 0,0
20.08.2019 17:00:00 16,7 9,5 17,5 19,5 17,0 14,6 7 4 21 11 ENE 47 0 0,0
20.08.2019 16:00:00 17,0 9,8 17,8 19,4 16,8 14,6 6 3 19 11 N 53 0 0,0
20.08.2019 15:00:00 17,7 9,6 18,5 20,0 16,5 14,6 6 4 17 9 NNE 70 0 0,0
20.08.2019 14:00:00 18,2 6,2 20,0 20,4 16,1 14,6 6 3 16 8 NNE 64 2 0,0
20.08.2019 13:00:00 18,5 7,5 21,6 20,4 15,6 14,6 5 3 15 8 NE 58 11 0,0
20.08.2019 12:00:00 18,1 7,1 20,4 19,4 15,2 14,6 7 4 18 10 NNE 62 20 0,0
20.08.2019 11:00:00 17,6 7,1 20,1 17,5 14,9 14,6 8 4 16 8 E 52 36 0,0
20.08.2019 10:00:00 16,2 9,9 17,6 15,1 14,8 14,6 6 3 11 6 E 53 3 0,0
20.08.2019 09:00:00 14,4 10,3 15,4 13,6 14,9 14,6 5 3 11 6 E 54 0 0,0
20.08.2019 08:00:00 11,8 10,9 12,2 12,3 15,1 14,6 2 1 3 2 S 40 1 0,0
20.08.2019 07:00:00 9,9 8,6 8,2 11,9 15,3 14,5 0 0 4 2 N 35 0 0,0
20.08.2019 06:00:00 10,2 8,6 7,8 12,3 15,5 14,5 0 0 6 3 N 41 0 0,0
20.08.2019 05:00:00 11,3 10,5 9,7 12,6 15,7 14,5 3 1 6 4 N 29 0 0,0
20.08.2019 04:00:00 11,0 10,1 9,6 12,8 16,0 14,5 4 2 9 5 WNW 25 0 0,0
20.08.2019 03:00:00 10,9 9,9 9,0 13,0 16,3 14,5 4 2 8 4 WSW 29 0 0,0
20.08.2019 02:00:00 11,2 9,7 10,0 13,4 16,6 14,5 4 2 6 3 WSW 43 0 0,0
20.08.2019 01:00:00 12,2 9,7 11,0 13,6 17,0 14,5 3 1 9 5 S 54 0 0,0
20.08.2019 00:00:00 10,4 8,6 7,9 14,1 17,4 14,5 0 0 5 3 N 49 0 0,0
19.08.2019 23:00:00 11,5 9,4 8,6 15,2 17,7 14,5 3 1 6 4 W 55 0 0,0
19.08.2019 22:00:00 12,5 9,9 10,7 16,2 18,0 14,5 4 2 8 4 WSW 54 0 0,0
19.08.2019 21:00:00 13,9 10,0 10,0 17,6 18,1 14,5 3 1 5 3 W 66 0 0,0
19.08.2019 20:00:00 17,2 9,7 14,0 19,3 18,1 14,5 3 2 14 7 WNW 70 40 0,0
19.08.2019 19:00:00 18,1 9,4 18,0 20,2 18,0 14,5 3 2 15 8 W 70 10 0,0
19.08.2019 18:00:00 19,0 8,9 20,4 21,3 17,8 14,5 5 3 22 12 WSW 68 24 0,0
19.08.2019 17:00:00 19,5 8,1 21,8 22,2 17,4 14,5 8 5 20 11 W 48 53 0,0
19.08.2019 16:00:00 18,7 9,0 21,0 22,1 16,9 14,5 11 6 24 13 W 32 49 0,0
19.08.2019 15:00:00 17,6 11,7 20,9 21,7 16,4 14,5 6 4 24 13 WNW 61 49 0,0
19.08.2019 14:00:00 17,0 12,0 20,1 19,5 16,2 14,5 11 6 23 12 W 27 32 0,0
19.08.2019 13:00:00 15,0 13,2 16,4 16,7 16,2 14,5 7 4 16 9 W 19 0 0,0
19.08.2019 12:00:00 14,6 13,2 14,4 16,6 16,1 14,5 5 3 18 10 NW 17 0 0,0
19.08.2019 11:00:00 14,9 13,7 15,1 16,2 16,1 14,5 8 4 22 12 W 11 0 0,0
19.08.2019 10:00:00 14,7 13,8 15,1 15,6 16,1 14,5 8 5 18 10 W 36 0 0,5
19.08.2019 09:00:00 14,4 13,2 14,2 15,3 16,2 14,5 9 5 24 13 W 43 0 0,0
19.08.2019 08:00:00 14,6 13,4 14,3 15,1 16,3 14,5 11 6 29 16 W 34 0 0,0

tt = temperature
td = dewpoint
tt 5cm = temperature 5cm
tt -5cm = temperature -5cm
tt -20cm = temperature -20cm
tt -100cm = temperature -100cm
ff = wind speed
fx = gusts
dd = wind direction
vv = visibility
sd = sunshine duration
rr = precipitation

Next stations